sensor_id;sensor_type;location;lat;lon;timestamp;P1;durP1;ratioP1;P2;durP2;ratioP2
62616;SDS011;62539;51.190;6.808;2023-01-15T00:01:03;4.90;;;1.23;;
62616;SDS011;62539;51.190;6.808;2023-01-15T00:03:30;9.00;;;1.42;;
62616;SDS011;62539;51.190;6.808;2023-01-15T00:06:00;4.28;;;1.33;;
62616;SDS011;62539;51.190;6.808;2023-01-15T00:08:27;1.50;;;1.10;;
62616;SDS011;62539;51.190;6.808;2023-01-15T00:10:52;2.25;;;1.20;;
62616;SDS011;62539;51.190;6.808;2023-01-15T00:13:17;3.60;;;1.27;;
62616;SDS011;62539;51.190;6.808;2023-01-15T00:15:43;2.83;;;1.05;;
62616;SDS011;62539;51.190;6.808;2023-01-15T00:18:08;3.95;;;1.10;;
62616;SDS011;62539;51.190;6.808;2023-01-15T00:20:34;3.15;;;1.15;;
62616;SDS011;62539;51.190;6.808;2023-01-15T00:23:00;4.22;;;1.25;;
62616;SDS011;62539;51.190;6.808;2023-01-15T00:25:25;2.90;;;0.90;;
62616;SDS011;62539;51.190;6.808;2023-01-15T00:28:11;3.42;;;1.25;;
62616;SDS011;62539;51.190;6.808;2023-01-15T00:30:41;6.13;;;1.13;;
62616;SDS011;62539;51.190;6.808;2023-01-15T00:33:07;3.72;;;1.73;;
62616;SDS011;62539;51.190;6.808;2023-01-15T00:35:33;3.83;;;1.20;;
62616;SDS011;62539;51.190;6.808;2023-01-15T00:37:59;2.00;;;1.08;;
62616;SDS011;62539;51.190;6.808;2023-01-15T00:40:24;6.05;;;1.20;;
62616;SDS011;62539;51.190;6.808;2023-01-15T00:42:49;5.28;;;1.10;;
62616;SDS011;62539;51.190;6.808;2023-01-15T00:45:15;5.78;;;1.08;;
62616;SDS011;62539;51.190;6.808;2023-01-15T00:47:41;2.05;;;0.90;;
62616;SDS011;62539;51.190;6.808;2023-01-15T00:50:11;6.30;;;1.20;;
62616;SDS011;62539;51.190;6.808;2023-01-15T00:52:39;4.55;;;1.30;;
62616;SDS011;62539;51.190;6.808;2023-01-15T00:55:06;2.30;;;1.02;;
62616;SDS011;62539;51.190;6.808;2023-01-15T00:57:33;3.58;;;1.10;;
62616;SDS011;62539;51.190;6.808;2023-01-15T00:59:59;1.27;;;0.90;;
62616;SDS011;62539;51.190;6.808;2023-01-15T01:02:24;3.92;;;0.90;;
62616;SDS011;62539;51.190;6.808;2023-01-15T01:04:50;6.68;;;1.23;;
62616;SDS011;62539;51.190;6.808;2023-01-15T01:07:15;3.28;;;0.90;;
62616;SDS011;62539;51.190;6.808;2023-01-15T01:09:42;2.88;;;1.00;;
62616;SDS011;62539;51.190;6.808;2023-01-15T01:12:07;2.45;;;1.00;;
62616;SDS011;62539;51.190;6.808;2023-01-15T01:14:33;2.25;;;0.90;;
62616;SDS011;62539;51.190;6.808;2023-01-15T01:16:58;3.00;;;0.88;;
62616;SDS011;62539;51.190;6.808;2023-01-15T01:19:24;3.53;;;1.23;;
62616;SDS011;62539;51.190;6.808;2023-01-15T01:21:50;3.40;;;0.90;;
62616;SDS011;62539;51.190;6.808;2023-01-15T01:24:17;2.83;;;1.02;;
62616;SDS011;62539;51.190;6.808;2023-01-15T01:26:46;2.05;;;1.00;;
62616;SDS011;62539;51.190;6.808;2023-01-15T01:29:15;2.17;;;0.98;;
62616;SDS011;62539;51.190;6.808;2023-01-15T01:31:45;2.75;;;0.90;;
62616;SDS011;62539;51.190;6.808;2023-01-15T01:34:11;6.00;;;1.23;;
62616;SDS011;62539;51.190;6.808;2023-01-15T01:36:40;2.13;;;1.02;;
62616;SDS011;62539;51.190;6.808;2023-01-15T01:39:10;2.70;;;0.93;;
62616;SDS011;62539;51.190;6.808;2023-01-15T01:41:40;3.78;;;1.33;;
62616;SDS011;62539;51.190;6.808;2023-01-15T01:44:53;2.05;;;1.13;;
62616;SDS011;62539;51.190;6.808;2023-01-15T01:46:59;2.72;;;1.10;;
62616;SDS011;62539;51.190;6.808;2023-01-15T01:49:32;2.47;;;1.05;;
62616;SDS011;62539;51.190;6.808;2023-01-15T01:52:03;1.30;;;0.80;;
62616;SDS011;62539;51.190;6.808;2023-01-15T01:54:35;2.63;;;1.05;;
62616;SDS011;62539;51.190;6.808;2023-01-15T01:57:03;1.33;;;0.90;;
62616;SDS011;62539;51.190;6.808;2023-01-15T01:59:31;1.10;;;0.82;;
62616;SDS011;62539;51.190;6.808;2023-01-15T02:01:57;1.92;;;0.82;;
62616;SDS011;62539;51.190;6.808;2023-01-15T02:04:25;2.35;;;0.95;;
62616;SDS011;62539;51.190;6.808;2023-01-15T02:06:53;2.13;;;0.93;;
62616;SDS011;62539;51.190;6.808;2023-01-15T02:09:19;3.90;;;0.98;;
62616;SDS011;62539;51.190;6.808;2023-01-15T02:11:45;3.15;;;0.90;;
62616;SDS011;62539;51.190;6.808;2023-01-15T02:14:13;2.88;;;0.90;;
62616;SDS011;62539;51.190;6.808;2023-01-15T02:16:59;1.95;;;0.93;;
62616;SDS011;62539;51.190;6.808;2023-01-15T02:19:47;2.10;;;0.95;;
62616;SDS011;62539;51.190;6.808;2023-01-15T02:22:25;2.28;;;1.00;;
62616;SDS011;62539;51.190;6.808;2023-01-15T02:27:48;1.80;;;0.80;;
62616;SDS011;62539;51.190;6.808;2023-01-15T02:30:27;1.67;;;1.02;;
62616;SDS011;62539;51.190;6.808;2023-01-15T02:33:04;3.80;;;0.90;;
62616;SDS011;62539;51.190;6.808;2023-01-15T02:35:49;1.52;;;0.80;;
62616;SDS011;62539;51.190;6.808;2023-01-15T02:38:25;1.02;;;0.82;;
62616;SDS011;62539;51.190;6.808;2023-01-15T02:40:57;1.38;;;0.70;;
62616;SDS011;62539;51.190;6.808;2023-01-15T02:43:28;1.30;;;0.85;;
62616;SDS011;62539;51.190;6.808;2023-01-15T02:46:02;1.30;;;0.82;;
62616;SDS011;62539;51.190;6.808;2023-01-15T02:48:31;1.50;;;0.90;;
62616;SDS011;62539;51.190;6.808;2023-01-15T02:51:07;0.70;;;0.70;;
62616;SDS011;62539;51.190;6.808;2023-01-15T02:53:45;2.67;;;1.02;;
62616;SDS011;62539;51.190;6.808;2023-01-15T02:56:17;0.85;;;0.70;;
62616;SDS011;62539;51.190;6.808;2023-01-15T02:58:50;1.70;;;0.90;;
62616;SDS011;62539;51.190;6.808;2023-01-15T03:01:30;0.73;;;0.70;;
62616;SDS011;62539;51.190;6.808;2023-01-15T03:04:17;1.63;;;0.80;;
62616;SDS011;62539;51.190;6.808;2023-01-15T03:06:54;2.55;;;1.10;;
62616;SDS011;62539;51.190;6.808;2023-01-15T03:09:33;1.30;;;0.75;;
62616;SDS011;62539;51.190;6.808;2023-01-15T03:14:35;1.25;;;0.73;;
62616;SDS011;62539;51.190;6.808;2023-01-15T03:19:58;2.17;;;0.70;;
62616;SDS011;62539;51.190;6.808;2023-01-15T03:22:48;3.20;;;0.90;;
62616;SDS011;62539;51.190;6.808;2023-01-15T03:25:22;1.05;;;0.70;;
62616;SDS011;62539;51.190;6.808;2023-01-15T03:27:51;1.58;;;0.70;;
62616;SDS011;62539;51.190;6.808;2023-01-15T03:30:23;1.75;;;0.90;;
62616;SDS011;62539;51.190;6.808;2023-01-15T03:32:50;4.68;;;0.98;;
62616;SDS011;62539;51.190;6.808;2023-01-15T03:38:11;2.97;;;0.70;;
62616;SDS011;62539;51.190;6.808;2023-01-15T03:40:47;1.38;;;0.70;;
62616;SDS011;62539;51.190;6.808;2023-01-15T03:43:24;1.38;;;0.68;;
62616;SDS011;62539;51.190;6.808;2023-01-15T03:49:37;2.33;;;0.73;;
62616;SDS011;62539;51.190;6.808;2023-01-15T03:52:24;3.20;;;0.80;;
62616;SDS011;62539;51.190;6.808;2023-01-15T03:55:17;1.63;;;0.70;;
62616;SDS011;62539;51.190;6.808;2023-01-15T03:57:56;1.48;;;0.60;;
62616;SDS011;62539;51.190;6.808;2023-01-15T04:00:27;1.02;;;0.90;;
62616;SDS011;62539;51.190;6.808;2023-01-15T04:03:00;1.00;;;0.75;;
62616;SDS011;62539;51.190;6.808;2023-01-15T04:05:30;4.18;;;1.00;;
62616;SDS011;62539;51.190;6.808;2023-01-15T04:07:58;2.17;;;0.60;;
62616;SDS011;62539;51.190;6.808;2023-01-15T04:10:25;1.25;;;0.68;;
62616;SDS011;62539;51.190;6.808;2023-01-15T04:12:51;0.98;;;0.65;;
62616;SDS011;62539;51.190;6.808;2023-01-15T04:15:16;1.48;;;0.70;;
62616;SDS011;62539;51.190;6.808;2023-01-15T04:17:43;1.00;;;0.90;;
62616;SDS011;62539;51.190;6.808;2023-01-15T04:20:09;1.63;;;0.73;;
62616;SDS011;62539;51.190;6.808;2023-01-15T04:22:35;1.20;;;0.70;;
62616;SDS011;62539;51.190;6.808;2023-01-15T04:25:02;0.65;;;0.52;;
62616;SDS011;62539;51.190;6.808;2023-01-15T04:27:28;1.38;;;0.80;;
62616;SDS011;62539;51.190;6.808;2023-01-15T04:29:54;2.33;;;0.70;;
62616;SDS011;62539;51.190;6.808;2023-01-15T04:32:19;1.33;;;0.73;;
62616;SDS011;62539;51.190;6.808;2023-01-15T04:34:45;1.02;;;0.75;;
62616;SDS011;62539;51.190;6.808;2023-01-15T04:37:10;1.92;;;0.77;;
62616;SDS011;62539;51.190;6.808;2023-01-15T04:39:35;1.42;;;0.70;;
62616;SDS011;62539;51.190;6.808;2023-01-15T04:42:01;0.85;;;0.70;;
62616;SDS011;62539;51.190;6.808;2023-01-15T04:44:45;1.55;;;0.70;;
62616;SDS011;62539;51.190;6.808;2023-01-15T04:47:10;1.35;;;0.70;;
62616;SDS011;62539;51.190;6.808;2023-01-15T04:49:36;1.63;;;0.80;;
62616;SDS011;62539;51.190;6.808;2023-01-15T04:52:01;2.08;;;0.93;;
62616;SDS011;62539;51.190;6.808;2023-01-15T04:54:27;1.60;;;0.95;;
62616;SDS011;62539;51.190;6.808;2023-01-15T04:56:53;0.60;;;0.57;;
62616;SDS011;62539;51.190;6.808;2023-01-15T04:59:23;0.70;;;0.65;;
62616;SDS011;62539;51.190;6.808;2023-01-15T05:01:51;2.13;;;0.80;;
62616;SDS011;62539;51.190;6.808;2023-01-15T05:04:17;0.90;;;0.65;;
62616;SDS011;62539;51.190;6.808;2023-01-15T05:06:43;0.60;;;0.60;;
62616;SDS011;62539;51.190;6.808;2023-01-15T05:09:08;1.48;;;0.70;;
62616;SDS011;62539;51.190;6.808;2023-01-15T05:11:35;0.63;;;0.63;;
62616;SDS011;62539;51.190;6.808;2023-01-15T05:14:03;2.67;;;1.02;;
62616;SDS011;62539;51.190;6.808;2023-01-15T05:16:30;2.40;;;1.00;;
62616;SDS011;62539;51.190;6.808;2023-01-15T05:18:57;0.57;;;0.57;;
62616;SDS011;62539;51.190;6.808;2023-01-15T05:21:29;1.80;;;0.70;;
62616;SDS011;62539;51.190;6.808;2023-01-15T05:23:59;2.28;;;0.70;;
62616;SDS011;62539;51.190;6.808;2023-01-15T05:26:28;4.13;;;0.90;;
62616;SDS011;62539;51.190;6.808;2023-01-15T05:28:56;0.50;;;0.50;;
62616;SDS011;62539;51.190;6.808;2023-01-15T05:31:24;1.88;;;0.80;;
62616;SDS011;62539;51.190;6.808;2023-01-15T05:33:50;0.73;;;0.60;;
62616;SDS011;62539;51.190;6.808;2023-01-15T05:36:19;1.45;;;0.80;;
62616;SDS011;62539;51.190;6.808;2023-01-15T05:41:15;1.35;;;0.70;;
62616;SDS011;62539;51.190;6.808;2023-01-15T05:44:03;1.60;;;0.73;;
62616;SDS011;62539;51.190;6.808;2023-01-15T05:49:02;0.63;;;0.50;;
62616;SDS011;62539;51.190;6.808;2023-01-15T05:51:31;0.75;;;0.70;;
62616;SDS011;62539;51.190;6.808;2023-01-15T05:53:59;1.13;;;0.50;;
62616;SDS011;62539;51.190;6.808;2023-01-15T05:56:24;1.50;;;0.50;;
62616;SDS011;62539;51.190;6.808;2023-01-15T05:58:50;1.70;;;0.70;;
62616;SDS011;62539;51.190;6.808;2023-01-15T06:01:17;2.50;;;0.93;;
62616;SDS011;62539;51.190;6.808;2023-01-15T06:03:43;0.90;;;0.50;;
62616;SDS011;62539;51.190;6.808;2023-01-15T06:06:14;1.10;;;0.80;;
62616;SDS011;62539;51.190;6.808;2023-01-15T06:08:42;1.30;;;0.70;;
62616;SDS011;62539;51.190;6.808;2023-01-15T06:11:09;1.73;;;0.90;;
62616;SDS011;62539;51.190;6.808;2023-01-15T06:13:35;1.23;;;0.57;;
62616;SDS011;62539;51.190;6.808;2023-01-15T06:16:03;0.65;;;0.50;;
62616;SDS011;62539;51.190;6.808;2023-01-15T06:18:30;1.52;;;0.63;;
62616;SDS011;62539;51.190;6.808;2023-01-15T06:21:01;1.33;;;0.80;;
62616;SDS011;62539;51.190;6.808;2023-01-15T06:23:28;1.05;;;0.70;;
62616;SDS011;62539;51.190;6.808;2023-01-15T06:25:54;1.77;;;0.70;;
62616;SDS011;62539;51.190;6.808;2023-01-15T06:28:19;0.40;;;0.40;;
62616;SDS011;62539;51.190;6.808;2023-01-15T06:30:44;0.68;;;0.50;;
62616;SDS011;62539;51.190;6.808;2023-01-15T06:33:10;1.25;;;0.60;;
62616;SDS011;62539;51.190;6.808;2023-01-15T06:35:35;2.17;;;0.80;;
62616;SDS011;62539;51.190;6.808;2023-01-15T06:38:00;1.95;;;0.60;;
62616;SDS011;62539;51.190;6.808;2023-01-15T06:40:26;1.05;;;0.55;;
62616;SDS011;62539;51.190;6.808;2023-01-15T06:42:52;5.35;;;0.98;;
62616;SDS011;62539;51.190;6.808;2023-01-15T06:45:37;0.63;;;0.60;;
62616;SDS011;62539;51.190;6.808;2023-01-15T06:48:23;1.95;;;0.68;;
62616;SDS011;62539;51.190;6.808;2023-01-15T06:50:49;1.75;;;0.65;;
62616;SDS011;62539;51.190;6.808;2023-01-15T06:53:15;1.63;;;0.65;;
62616;SDS011;62539;51.190;6.808;2023-01-15T06:55:41;1.30;;;0.70;;
62616;SDS011;62539;51.190;6.808;2023-01-15T06:58:06;1.92;;;0.70;;
62616;SDS011;62539;51.190;6.808;2023-01-15T07:00:32;2.05;;;0.77;;
62616;SDS011;62539;51.190;6.808;2023-01-15T07:03:01;1.65;;;1.05;;
62616;SDS011;62539;51.190;6.808;2023-01-15T07:05:28;0.70;;;0.60;;
62616;SDS011;62539;51.190;6.808;2023-01-15T07:07:53;2.15;;;0.70;;
62616;SDS011;62539;51.190;6.808;2023-01-15T07:10:19;1.80;;;0.60;;
62616;SDS011;62539;51.190;6.808;2023-01-15T07:12:45;1.27;;;0.55;;
62616;SDS011;62539;51.190;6.808;2023-01-15T07:15:10;1.92;;;0.70;;
62616;SDS011;62539;51.190;6.808;2023-01-15T07:17:36;0.93;;;0.60;;
62616;SDS011;62539;51.190;6.808;2023-01-15T07:20:01;2.75;;;0.65;;
62616;SDS011;62539;51.190;6.808;2023-01-15T07:22:29;1.30;;;0.70;;
62616;SDS011;62539;51.190;6.808;2023-01-15T07:24:55;0.90;;;0.50;;
62616;SDS011;62539;51.190;6.808;2023-01-15T07:27:20;3.08;;;0.88;;
62616;SDS011;62539;51.190;6.808;2023-01-15T07:29:47;1.35;;;0.73;;
62616;SDS011;62539;51.190;6.808;2023-01-15T07:32:13;1.00;;;0.50;;
62616;SDS011;62539;51.190;6.808;2023-01-15T07:34:39;1.77;;;0.70;;
62616;SDS011;62539;51.190;6.808;2023-01-15T07:37:05;2.20;;;0.70;;
62616;SDS011;62539;51.190;6.808;2023-01-15T07:39:31;2.47;;;0.65;;
62616;SDS011;62539;51.190;6.808;2023-01-15T07:41:57;3.67;;;1.23;;
62616;SDS011;62539;51.190;6.808;2023-01-15T07:44:41;2.83;;;0.98;;
62616;SDS011;62539;51.190;6.808;2023-01-15T07:47:25;5.25;;;0.90;;
62616;SDS011;62539;51.190;6.808;2023-01-15T07:50:14;4.78;;;0.82;;
62616;SDS011;62539;51.190;6.808;2023-01-15T07:52:45;7.97;;;1.33;;
62616;SDS011;62539;51.190;6.808;2023-01-15T07:55:11;4.32;;;1.00;;
62616;SDS011;62539;51.190;6.808;2023-01-15T07:57:38;2.28;;;0.80;;
62616;SDS011;62539;51.190;6.808;2023-01-15T08:00:06;4.03;;;0.95;;
62616;SDS011;62539;51.190;6.808;2023-01-15T08:02:38;1.73;;;0.88;;
62616;SDS011;62539;51.190;6.808;2023-01-15T08:05:04;4.00;;;1.10;;
62616;SDS011;62539;51.190;6.808;2023-01-15T08:07:35;4.55;;;0.90;;
62616;SDS011;62539;51.190;6.808;2023-01-15T08:10:02;1.90;;;0.63;;
62616;SDS011;62539;51.190;6.808;2023-01-15T08:12:28;1.65;;;0.80;;
62616;SDS011;62539;51.190;6.808;2023-01-15T08:15:12;3.42;;;0.93;;
62616;SDS011;62539;51.190;6.808;2023-01-15T08:17:38;4.60;;;1.00;;
62616;SDS011;62539;51.190;6.808;2023-01-15T08:22:42;3.35;;;1.00;;
62616;SDS011;62539;51.190;6.808;2023-01-15T08:25:10;4.90;;;0.90;;
62616;SDS011;62539;51.190;6.808;2023-01-15T08:27:38;4.68;;;1.00;;
62616;SDS011;62539;51.190;6.808;2023-01-15T08:30:05;2.80;;;0.90;;
62616;SDS011;62539;51.190;6.808;2023-01-15T08:32:34;9.32;;;1.00;;
62616;SDS011;62539;51.190;6.808;2023-01-15T08:34:59;5.95;;;0.93;;
62616;SDS011;62539;51.190;6.808;2023-01-15T08:37:25;6.47;;;0.95;;
62616;SDS011;62539;51.190;6.808;2023-01-15T08:39:50;5.07;;;0.90;;
62616;SDS011;62539;51.190;6.808;2023-01-15T08:42:17;5.30;;;0.85;;
62616;SDS011;62539;51.190;6.808;2023-01-15T08:44:44;3.78;;;0.95;;
62616;SDS011;62539;51.190;6.808;2023-01-15T08:47:10;3.53;;;0.90;;
62616;SDS011;62539;51.190;6.808;2023-01-15T08:49:35;13.15;;;1.38;;
62616;SDS011;62539;51.190;6.808;2023-01-15T08:52:02;4.15;;;1.10;;
62616;SDS011;62539;51.190;6.808;2023-01-15T08:54:28;5.65;;;1.17;;
62616;SDS011;62539;51.190;6.808;2023-01-15T08:56:54;3.17;;;1.00;;
62616;SDS011;62539;51.190;6.808;2023-01-15T08:59:20;3.35;;;0.73;;
62616;SDS011;62539;51.190;6.808;2023-01-15T09:01:46;3.65;;;0.88;;
62616;SDS011;62539;51.190;6.808;2023-01-15T09:04:15;6.18;;;1.13;;
62616;SDS011;62539;51.190;6.808;2023-01-15T09:06:44;4.25;;;0.90;;
62616;SDS011;62539;51.190;6.808;2023-01-15T09:09:11;6.85;;;0.85;;
62616;SDS011;62539;51.190;6.808;2023-01-15T09:11:36;8.20;;;1.00;;
62616;SDS011;62539;51.190;6.808;2023-01-15T09:14:06;6.72;;;1.00;;
62616;SDS011;62539;51.190;6.808;2023-01-15T09:16:33;8.63;;;0.80;;
62616;SDS011;62539;51.190;6.808;2023-01-15T09:19:00;4.80;;;0.93;;
62616;SDS011;62539;51.190;6.808;2023-01-15T09:21:25;1.95;;;1.00;;
62616;SDS011;62539;51.190;6.808;2023-01-15T09:23:51;5.35;;;0.95;;
62616;SDS011;62539;51.190;6.808;2023-01-15T09:26:23;3.15;;;0.93;;
62616;SDS011;62539;51.190;6.808;2023-01-15T09:28:58;3.70;;;0.90;;
62616;SDS011;62539;51.190;6.808;2023-01-15T09:31:25;4.05;;;1.42;;
62616;SDS011;62539;51.190;6.808;2023-01-15T09:33:51;7.07;;;0.95;;
62616;SDS011;62539;51.190;6.808;2023-01-15T09:36:17;8.98;;;1.38;;
62616;SDS011;62539;51.190;6.808;2023-01-15T09:38:48;12.63;;;1.23;;
62616;SDS011;62539;51.190;6.808;2023-01-15T09:41:14;9.85;;;1.10;;
62616;SDS011;62539;51.190;6.808;2023-01-15T09:44:06;12.48;;;1.33;;
62616;SDS011;62539;51.190;6.808;2023-01-15T09:46:52;7.63;;;1.38;;
62616;SDS011;62539;51.190;6.808;2023-01-15T09:49:37;14.32;;;2.03;;
62616;SDS011;62539;51.190;6.808;2023-01-15T09:55:26;22.42;;;1.65;;
62616;SDS011;62539;51.190;6.808;2023-01-15T09:57:56;11.98;;;1.60;;
62616;SDS011;62539;51.190;6.808;2023-01-15T10:00:28;10.02;;;1.48;;
62616;SDS011;62539;51.190;6.808;2023-01-15T10:03:22;12.00;;;1.25;;
62616;SDS011;62539;51.190;6.808;2023-01-15T10:06:20;13.65;;;1.65;;
62616;SDS011;62539;51.190;6.808;2023-01-15T10:08:55;12.63;;;1.35;;
62616;SDS011;62539;51.190;6.808;2023-01-15T10:11:30;6.05;;;1.23;;
62616;SDS011;62539;51.190;6.808;2023-01-15T10:14:44;7.85;;;1.08;;
62616;SDS011;62539;51.190;6.808;2023-01-15T10:17:24;7.80;;;1.40;;
62616;SDS011;62539;51.190;6.808;2023-01-15T10:19:58;10.55;;;1.23;;
62616;SDS011;62539;51.190;6.808;2023-01-15T10:22:34;9.05;;;1.27;;
62616;SDS011;62539;51.190;6.808;2023-01-15T10:25:01;10.02;;;1.30;;
62616;SDS011;62539;51.190;6.808;2023-01-15T10:27:37;10.10;;;1.25;;
62616;SDS011;62539;51.190;6.808;2023-01-15T10:30:14;8.40;;;0.80;;
62616;SDS011;62539;51.190;6.808;2023-01-15T10:32:49;14.25;;;1.25;;
62616;SDS011;62539;51.190;6.808;2023-01-15T10:38:11;5.47;;;0.98;;
62616;SDS011;62539;51.190;6.808;2023-01-15T10:45:58;4.97;;;0.95;;
62616;SDS011;62539;51.190;6.808;2023-01-15T10:48:29;8.32;;;1.23;;
62616;SDS011;62539;51.190;6.808;2023-01-15T10:51:02;8.82;;;1.20;;
62616;SDS011;62539;51.190;6.808;2023-01-15T10:53:41;5.00;;;1.00;;
62616;SDS011;62539;51.190;6.808;2023-01-15T11:02:00;7.65;;;1.15;;
62616;SDS011;62539;51.190;6.808;2023-01-15T11:04:40;3.90;;;1.02;;
62616;SDS011;62539;51.190;6.808;2023-01-15T11:07:08;4.97;;;1.10;;
62616;SDS011;62539;51.190;6.808;2023-01-15T11:09:38;6.57;;;1.17;;
62616;SDS011;62539;51.190;6.808;2023-01-15T11:12:17;6.45;;;1.27;;
62616;SDS011;62539;51.190;6.808;2023-01-15T11:14:50;5.18;;;1.50;;
62616;SDS011;62539;51.190;6.808;2023-01-15T11:17:35;3.70;;;1.20;;
62616;SDS011;62539;51.190;6.808;2023-01-15T11:23:09;7.78;;;1.13;;
62616;SDS011;62539;51.190;6.808;2023-01-15T11:25:39;2.97;;;0.98;;
62616;SDS011;62539;51.190;6.808;2023-01-15T11:31:07;3.92;;;1.00;;
62616;SDS011;62539;51.190;6.808;2023-01-15T11:33:35;7.03;;;1.60;;
62616;SDS011;62539;51.190;6.808;2023-01-15T11:36:03;2.80;;;1.10;;
62616;SDS011;62539;51.190;6.808;2023-01-15T11:38:44;4.80;;;1.00;;
62616;SDS011;62539;51.190;6.808;2023-01-15T11:41:18;4.00;;;0.95;;
62616;SDS011;62539;51.190;6.808;2023-01-15T11:44:16;2.95;;;0.70;;
62616;SDS011;62539;51.190;6.808;2023-01-15T11:47:07;4.50;;;1.08;;
62616;SDS011;62539;51.190;6.808;2023-01-15T11:49:54;3.25;;;0.90;;
62616;SDS011;62539;51.190;6.808;2023-01-15T11:52:45;3.38;;;1.20;;
62616;SDS011;62539;51.190;6.808;2023-01-15T11:55:23;2.08;;;0.80;;
62616;SDS011;62539;51.190;6.808;2023-01-15T11:57:51;5.55;;;1.30;;
62616;SDS011;62539;51.190;6.808;2023-01-15T12:02:51;2.20;;;0.85;;
62616;SDS011;62539;51.190;6.808;2023-01-15T12:05:28;2.78;;;0.77;;
62616;SDS011;62539;51.190;6.808;2023-01-15T12:08:00;2.75;;;0.80;;
62616;SDS011;62539;51.190;6.808;2023-01-15T12:10:46;2.10;;;0.75;;
62616;SDS011;62539;51.190;6.808;2023-01-15T12:16:33;3.55;;;0.70;;
62616;SDS011;62539;51.190;6.808;2023-01-15T12:19:21;2.25;;;0.70;;
62616;SDS011;62539;51.190;6.808;2023-01-15T12:25:35;1.67;;;0.70;;
62616;SDS011;62539;51.190;6.808;2023-01-15T12:31:06;2.25;;;0.80;;
62616;SDS011;62539;51.190;6.808;2023-01-15T12:33:44;3.17;;;0.80;;
62616;SDS011;62539;51.190;6.808;2023-01-15T12:36:18;3.92;;;0.77;;
62616;SDS011;62539;51.190;6.808;2023-01-15T12:41:32;3.78;;;0.90;;
62616;SDS011;62539;51.190;6.808;2023-01-15T12:44:30;2.15;;;1.08;;
62616;SDS011;62539;51.190;6.808;2023-01-15T12:50:55;2.13;;;0.85;;
62616;SDS011;62539;51.190;6.808;2023-01-15T12:53:29;2.60;;;0.70;;
62616;SDS011;62539;51.190;6.808;2023-01-15T12:56:11;1.33;;;0.85;;
62616;SDS011;62539;51.190;6.808;2023-01-15T12:58:56;2.55;;;0.50;;
62616;SDS011;62539;51.190;6.808;2023-01-15T13:01:44;2.45;;;0.90;;
62616;SDS011;62539;51.190;6.808;2023-01-15T13:04:17;2.50;;;0.90;;
62616;SDS011;62539;51.190;6.808;2023-01-15T13:07:00;2.92;;;0.80;;
62616;SDS011;62539;51.190;6.808;2023-01-15T13:10:03;3.10;;;0.82;;
62616;SDS011;62539;51.190;6.808;2023-01-15T13:12:40;2.70;;;0.60;;
62616;SDS011;62539;51.190;6.808;2023-01-15T13:15:06;3.53;;;0.88;;
62616;SDS011;62539;51.190;6.808;2023-01-15T13:20:34;1.40;;;0.60;;
62616;SDS011;62539;51.190;6.808;2023-01-15T13:26:22;1.50;;;0.63;;
62616;SDS011;62539;51.190;6.808;2023-01-15T13:32:17;3.83;;;0.75;;
62616;SDS011;62539;51.190;6.808;2023-01-15T13:35:00;4.45;;;0.80;;
62616;SDS011;62539;51.190;6.808;2023-01-15T13:37:45;8.63;;;1.20;;
62616;SDS011;62539;51.190;6.808;2023-01-15T13:40:32;12.48;;;1.00;;
62616;SDS011;62539;51.190;6.808;2023-01-15T13:46:10;6.80;;;0.90;;
62616;SDS011;62539;51.190;6.808;2023-01-15T13:48:45;4.30;;;0.80;;
62616;SDS011;62539;51.190;6.808;2023-01-15T13:51:24;3.47;;;0.75;;
62616;SDS011;62539;51.190;6.808;2023-01-15T13:53:57;2.28;;;0.82;;
62616;SDS011;62539;51.190;6.808;2023-01-15T13:56:29;5.00;;;0.80;;
62616;SDS011;62539;51.190;6.808;2023-01-15T13:59:00;6.00;;;0.70;;
62616;SDS011;62539;51.190;6.808;2023-01-15T14:06:49;4.97;;;0.95;;
62616;SDS011;62539;51.190;6.808;2023-01-15T14:27:14;2.10;;;0.70;;
62616;SDS011;62539;51.190;6.808;2023-01-15T14:32:44;9.07;;;1.75;;
62616;SDS011;62539;51.190;6.808;2023-01-15T14:35:33;3.33;;;0.77;;
62616;SDS011;62539;51.190;6.808;2023-01-15T14:38:05;6.45;;;1.10;;
62616;SDS011;62539;51.190;6.808;2023-01-15T14:40:50;3.42;;;0.90;;
62616;SDS011;62539;51.190;6.808;2023-01-15T14:43:23;5.70;;;1.00;;
62616;SDS011;62539;51.190;6.808;2023-01-15T14:45:53;9.75;;;1.20;;
62616;SDS011;62539;51.190;6.808;2023-01-15T14:48:33;4.55;;;1.05;;
62616;SDS011;62539;51.190;6.808;2023-01-15T14:51:06;4.85;;;0.90;;
62616;SDS011;62539;51.190;6.808;2023-01-15T14:54:10;2.97;;;0.98;;
62616;SDS011;62539;51.190;6.808;2023-01-15T14:56:44;4.10;;;0.80;;
62616;SDS011;62539;51.190;6.808;2023-01-15T14:59:35;4.50;;;1.02;;
62616;SDS011;62539;51.190;6.808;2023-01-15T15:02:16;3.97;;;0.88;;
62616;SDS011;62539;51.190;6.808;2023-01-15T15:04:49;5.57;;;0.90;;
62616;SDS011;62539;51.190;6.808;2023-01-15T15:07:21;4.00;;;0.80;;
62616;SDS011;62539;51.190;6.808;2023-01-15T15:09:58;6.15;;;0.90;;
62616;SDS011;62539;51.190;6.808;2023-01-15T15:12:57;4.97;;;1.05;;
62616;SDS011;62539;51.190;6.808;2023-01-15T15:15:34;4.30;;;0.82;;
62616;SDS011;62539;51.190;6.808;2023-01-15T15:18:36;8.25;;;0.90;;
62616;SDS011;62539;51.190;6.808;2023-01-15T15:31:45;2.50;;;0.77;;
62616;SDS011;62539;51.190;6.808;2023-01-15T15:34:27;5.63;;;1.00;;
62616;SDS011;62539;51.190;6.808;2023-01-15T15:36:57;15.27;;;1.20;;
62616;SDS011;62539;51.190;6.808;2023-01-15T15:39:41;6.68;;;1.05;;
62616;SDS011;62539;51.190;6.808;2023-01-15T15:42:19;4.72;;;1.20;;
62616;SDS011;62539;51.190;6.808;2023-01-15T15:45:18;8.75;;;1.30;;
62616;SDS011;62539;51.190;6.808;2023-01-15T15:48:17;5.07;;;0.90;;
62616;SDS011;62539;51.190;6.808;2023-01-15T15:51:04;7.60;;;0.93;;
62616;SDS011;62539;51.190;6.808;2023-01-15T15:53:47;7.68;;;1.23;;
62616;SDS011;62539;51.190;6.808;2023-01-15T15:56:12;7.93;;;1.20;;
62616;SDS011;62539;51.190;6.808;2023-01-15T15:58:39;3.33;;;1.13;;
62616;SDS011;62539;51.190;6.808;2023-01-15T16:01:05;6.07;;;1.15;;
62616;SDS011;62539;51.190;6.808;2023-01-15T16:03:43;4.13;;;0.88;;
62616;SDS011;62539;51.190;6.808;2023-01-15T16:06:17;3.05;;;0.90;;
62616;SDS011;62539;51.190;6.808;2023-01-15T16:08:57;3.53;;;0.95;;
62616;SDS011;62539;51.190;6.808;2023-01-15T16:11:29;5.30;;;1.17;;
62616;SDS011;62539;51.190;6.808;2023-01-15T16:13:57;9.60;;;1.20;;
62616;SDS011;62539;51.190;6.808;2023-01-15T16:16:29;4.13;;;0.80;;
62616;SDS011;62539;51.190;6.808;2023-01-15T16:18:56;5.68;;;1.52;;
62616;SDS011;62539;51.190;6.808;2023-01-15T16:24:04;4.28;;;1.13;;
62616;SDS011;62539;51.190;6.808;2023-01-15T16:26:34;9.80;;;1.10;;
62616;SDS011;62539;51.190;6.808;2023-01-15T16:29:13;5.13;;;1.08;;
62616;SDS011;62539;51.190;6.808;2023-01-15T16:31:53;7.47;;;0.85;;
62616;SDS011;62539;51.190;6.808;2023-01-15T16:34:25;3.33;;;0.77;;
62616;SDS011;62539;51.190;6.808;2023-01-15T16:36:58;5.10;;;1.38;;
62616;SDS011;62539;51.190;6.808;2023-01-15T16:42:21;7.30;;;1.00;;
62616;SDS011;62539;51.190;6.808;2023-01-15T16:45:25;3.65;;;0.90;;
62616;SDS011;62539;51.190;6.808;2023-01-15T16:52:58;9.57;;;1.70;;
62616;SDS011;62539;51.190;6.808;2023-01-15T17:00:36;5.63;;;2.47;;
62616;SDS011;62539;51.190;6.808;2023-01-15T17:03:09;4.28;;;1.70;;
62616;SDS011;62539;51.190;6.808;2023-01-15T17:05:40;7.20;;;1.92;;
62616;SDS011;62539;51.190;6.808;2023-01-15T17:08:14;13.05;;;2.05;;
62616;SDS011;62539;51.190;6.808;2023-01-15T17:10:59;5.82;;;1.73;;
62616;SDS011;62539;51.190;6.808;2023-01-15T17:16:05;9.68;;;1.48;;
62616;SDS011;62539;51.190;6.808;2023-01-15T17:18:41;3.60;;;1.30;;
62616;SDS011;62539;51.190;6.808;2023-01-15T17:21:17;3.20;;;1.30;;
62616;SDS011;62539;51.190;6.808;2023-01-15T17:23:51;14.02;;;1.65;;
62616;SDS011;62539;51.190;6.808;2023-01-15T17:26:24;11.65;;;1.70;;
62616;SDS011;62539;51.190;6.808;2023-01-15T17:28:51;14.38;;;1.88;;
62616;SDS011;62539;51.190;6.808;2023-01-15T17:31:20;7.10;;;1.70;;